Time;durP1;ratioP1;P1;durP2;ratioP2;P2;SDS_P1;SDS_P2;PMS_P1;PMS_P2;Temp;Humidity;BMP_temperature;BMP_pressure;BME280_temperature;BME280_humidity;BME280_pressure;Samples;Min_cycle;Max_cycle;Signal;HPM_P1;HPM_P2
2023/04/04 00:00:24;;;;;;;;;;;19.60;32.30;;;;;;8333035;28;19924;-44
2023/04/04 00:04:24;;;;;;;;;;;19.50;32.20;;;;;;8333160;28;19921;-43
2023/04/04 00:08:25;;;;;;;;;;;19.50;32.30;;;;;;8332544;28;19974;-44
2023/04/04 00:12:26;;;;;;;;;;;19.50;32.20;;;;;;8332977;28;19913;-43
2023/04/04 00:16:26;;;;;;;;;;;19.50;32.20;;;;;;8333626;28;19986;-43
2023/04/04 00:20:26;;;;;;;;;;;19.50;32.20;;;;;;8332435;28;19971;-44
2023/04/04 00:24:27;;;;;;;;;;;19.40;32.20;;;;;;8332946;28;19970;-43
2023/04/04 00:28:27;;;;;;;;;;;19.40;32.20;;;;;;8332724;28;20378;-43
2023/04/04 00:32:28;;;;;;;;;;;19.40;32.10;;;;;;8331917;28;19928;-43
2023/04/04 00:36:28;;;;;;;;;;;19.40;32.30;;;;;;8332702;28;20301;-43
2023/04/04 00:40:29;;;;;;;;;;;19.40;32.20;;;;;;8332172;28;19971;-43
2023/04/04 00:44:30;;;;;;;;;;;19.40;32.10;;;;;;8331758;28;19913;-43
2023/04/04 00:48:32;;;;;;;;;;;19.30;32.10;;;;;;8331130;28;19991;-43
2023/04/04 00:52:32;;;;;;;;;;;19.40;32.20;;;;;;8331912;28;19956;-43
2023/04/04 00:56:34;;;;;;;;;;;19.30;32.00;;;;;;8331587;28;19979;-43
2023/04/04 01:00:35;;;;;;;;;;;19.30;32.20;;;;;;8331634;28;19917;-43
2023/04/04 01:04:36;;;;;;;;;;;19.30;32.10;;;;;;8330514;28;20349;-43
2023/04/04 01:08:37;;;;;;;;;;;19.30;32.10;;;;;;8330733;28;19994;-43
2023/04/04 01:12:38;;;;;;;;;;;19.20;32.10;;;;;;8331314;28;19913;-43
2023/04/04 01:16:39;;;;;;;;;;;19.30;32.20;;;;;;8331252;28;19913;-43
2023/04/04 01:20:43;;;;;;;;;;;19.30;32.10;;;;;;8330468;28;19940;-43
2023/04/04 01:24:43;;;;;;;;;;;19.20;32.20;;;;;;8330842;28;19917;-43
2023/04/04 01:28:44;;;;;;;;;;;19.20;32.10;;;;;;8330440;28;19952;-43
2023/04/04 01:32:51;;;;;;;;;;;19.20;32.10;;;;;;8330234;28;19915;-43
2023/04/04 01:36:55;;;;;;;;;;;19.20;32.10;;;;;;8330843;28;20357;-43
2023/04/04 01:41:00;;;;;;;;;;;19.20;32.10;;;;;;8312738;28;19959;-43
2023/04/04 01:45:00;;;;;;;;;;;19.20;32.10;;;;;;8329714;28;19921;-43
2023/04/04 01:49:01;;;;;;;;;;;19.10;32.10;;;;;;8330079;28;19925;-43
2023/04/04 01:53:01;;;;;;;;;;;19.10;32.10;;;;;;8330294;28;19917;-43
2023/04/04 01:57:02;;;;;;;;;;;19.10;32.10;;;;;;8329794;28;19918;-43
2023/04/04 02:01:02;;;;;;;;;;;19.10;32.10;;;;;;8330146;28;19917;-43
2023/04/04 02:05:03;;;;;;;;;;;19.10;32.10;;;;;;8330087;28;19921;-43
2023/04/04 02:09:03;;;;;;;;;;;19.00;32.10;;;;;;8329391;28;19925;-43
2023/04/04 02:13:03;;;;;;;;;;;19.00;32.10;;;;;;8330093;28;19920;-43
2023/04/04 02:17:04;;;;;;;;;;;19.00;32.00;;;;;;8330295;28;19920;-43
2023/04/04 02:21:04;;;;;;;;;;;19.00;32.00;;;;;;8329801;28;19917;-43
2023/04/04 02:25:05;;;;;;;;;;;19.00;32.10;;;;;;8329934;28;20015;-43
2023/04/04 02:29:06;;;;;;;;;;;19.00;32.10;;;;;;8329814;28;19948;-43
2023/04/04 02:33:07;;;;;;;;;;;19.00;32.10;;;;;;8329237;28;19913;-43
2023/04/04 02:37:07;;;;;;;;;;;18.90;32.00;;;;;;8330038;28;19913;-43
2023/04/04 02:41:08;;;;;;;;;;;18.90;32.00;;;;;;8329613;28;20377;-43
2023/04/04 02:45:09;;;;;;;;;;;18.90;32.00;;;;;;8329002;28;20019;-43
2023/04/04 02:49:11;;;;;;;;;;;18.90;32.00;;;;;;8329471;28;19925;-43
2023/04/04 02:53:11;;;;;;;;;;;18.90;32.00;;;;;;8329445;28;20017;-43
2023/04/04 02:57:12;;;;;;;;;;;18.90;32.00;;;;;;8328999;28;20290;-42
2023/04/04 03:01:12;;;;;;;;;;;18.90;32.00;;;;;;8329183;28;20015;-43
2023/04/04 03:05:13;;;;;;;;;;;18.90;32.00;;;;;;8329096;28;19929;-43
2023/04/04 03:09:13;;;;;;;;;;;18.80;31.90;;;;;;8328645;28;20305;-43
2023/04/04 03:13:13;;;;;;;;;;;18.80;31.90;;;;;;8333947;28;20362;-43
2023/04/04 03:17:14;;;;;;;;;;;18.80;31.90;;;;;;8335121;28;19913;-42
2023/04/04 03:21:15;;;;;;;;;;;18.80;31.90;;;;;;8334401;28;19917;-43
2023/04/04 03:25:15;;;;;;;;;;;18.80;32.00;;;;;;8335008;28;20417;-43
2023/04/04 03:29:16;;;;;;;;;;;18.80;32.00;;;;;;8334719;28;19929;-41
2023/04/04 03:33:17;;;;;;;;;;;18.80;31.90;;;;;;8334620;28;19948;-42
2023/04/04 03:37:17;;;;;;;;;;;18.80;32.00;;;;;;8334159;28;19917;-43
2023/04/04 03:41:18;;;;;;;;;;;18.80;31.90;;;;;;8333694;28;19939;-42
2023/04/04 03:45:18;;;;;;;;;;;18.80;32.00;;;;;;8334218;28;19949;-43
2023/04/04 03:49:18;;;;;;;;;;;18.80;31.90;;;;;;8333913;28;20450;-42
2023/04/04 03:53:19;;;;;;;;;;;18.80;31.90;;;;;;8333585;28;19913;-43
2023/04/04 03:57:19;;;;;;;;;;;18.80;31.90;;;;;;8333677;28;19921;-42
2023/04/04 04:01:20;;;;;;;;;;;18.80;32.00;;;;;;8333355;28;20393;-42
2023/04/04 04:05:20;;;;;;;;;;;18.80;31.80;;;;;;8333123;28;20381;-42
2023/04/04 04:09:21;;;;;;;;;;;18.80;32.00;;;;;;8331844;28;20465;-43
2023/04/04 04:13:21;;;;;;;;;;;18.80;31.80;;;;;;8333445;28;19920;-42
2023/04/04 04:17:22;;;;;;;;;;;18.90;31.90;;;;;;8332554;28;20012;-42
2023/04/04 04:21:22;;;;;;;;;;;19.00;31.80;;;;;;8332714;28;19992;-42
2023/04/04 04:25:23;;;;;;;;;;;19.10;31.90;;;;;;8332353;28;20358;-43
2023/04/04 04:29:23;;;;;;;;;;;19.20;31.90;;;;;;8332135;28;19932;-42
2023/04/04 04:33:31;;;;;;;;;;;19.40;31.90;;;;;;8332712;28;20362;-42
2023/04/04 04:37:31;;;;;;;;;;;19.40;31.80;;;;;;8332515;28;20306;-43
2023/04/04 04:41:32;;;;;;;;;;;19.50;31.70;;;;;;8331790;28;19917;-43
2023/04/04 04:45:32;;;;;;;;;;;19.60;31.70;;;;;;8331910;28;19917;-43
2023/04/04 04:49:33;;;;;;;;;;;19.60;31.70;;;;;;8331926;28;19986;-43
2023/04/04 04:53:34;;;;;;;;;;;19.60;31.60;;;;;;8331773;28;20413;-43
2023/04/04 04:57:35;;;;;;;;;;;19.60;31.60;;;;;;8332069;28;20374;-43
2023/04/04 05:01:35;;;;;;;;;;;19.70;31.60;;;;;;8331710;28;19921;-42
2023/04/04 05:05:36;;;;;;;;;;;19.70;31.50;;;;;;8330984;28;19929;-42
2023/04/04 05:09:37;;;;;;;;;;;19.70;31.40;;;;;;8331544;28;19964;-42
2023/04/04 05:13:39;;;;;;;;;;;19.70;31.50;;;;;;8331541;28;20335;-43
2023/04/04 05:17:39;;;;;;;;;;;19.70;31.60;;;;;;8330872;28;19921;-42
2023/04/04 05:21:40;;;;;;;;;;;19.70;31.50;;;;;;8331289;28;20008;-42
2023/04/04 05:25:40;;;;;;;;;;;19.70;31.40;;;;;;8331021;28;20346;-42
2023/04/04 05:29:40;;;;;;;;;;;19.60;31.40;;;;;;8330112;28;19976;-42
2023/04/04 05:33:41;;;;;;;;;;;19.60;31.30;;;;;;8330547;28;19914;-42
2023/04/04 05:37:42;;;;;;;;;;;19.60;31.20;;;;;;8330649;28;19960;-42
2023/04/04 05:41:42;;;;;;;;;;;19.50;31.10;;;;;;8330085;28;19921;-43
2023/04/04 05:45:43;;;;;;;;;;;19.50;31.30;;;;;;8330654;28;20379;-43
2023/04/04 05:49:43;;;;;;;;;;;19.50;31.50;;;;;;8330342;28;19932;-43
2023/04/04 05:53:46;;;;;;;;;;;19.50;31.50;;;;;;8330140;28;19963;-42
2023/04/04 05:57:50;;;;;;;;;;;19.60;31.50;;;;;;8330281;28;19921;-42
2023/04/04 06:01:50;;;;;;;;;;;19.60;31.60;;;;;;8330022;28;19921;-42
2023/04/04 06:05:51;;;;;;;;;;;19.70;31.60;;;;;;8329330;28;20378;-42
2023/04/04 06:09:52;;;;;;;;;;;19.70;31.60;;;;;;8330104;28;19925;-43
2023/04/04 06:13:53;;;;;;;;;;;19.70;31.50;;;;;;8330272;28;20303;-43
2023/04/04 06:17:54;;;;;;;;;;;19.80;31.40;;;;;;8329391;28;19924;-44
2023/04/04 06:21:55;;;;;;;;;;;19.90;31.20;;;;;;8329945;28;19921;-43
2023/04/04 06:25:55;;;;;;;;;;;20.10;31.00;;;;;;8329615;28;19924;-43
2023/04/04 06:29:56;;;;;;;;;;;20.20;30.80;;;;;;8329073;28;19926;-43
2023/04/04 06:33:57;;;;;;;;;;;20.30;30.70;;;;;;8329692;28;19913;-43
2023/04/04 06:37:57;;;;;;;;;;;20.30;30.50;;;;;;8329652;28;19996;-44
2023/04/04 06:41:58;;;;;;;;;;;20.30;30.50;;;;;;8329049;28;19944;-43
2023/04/04 06:45:58;;;;;;;;;;;20.20;30.40;;;;;;8331262;28;20286;-43
2023/04/04 06:49:59;;;;;;;;;;;20.20;30.50;;;;;;8335422;28;19986;-43
2023/04/04 06:54:00;;;;;;;;;;;20.20;30.40;;;;;;8335307;28;19966;-43
2023/04/04 06:58:00;;;;;;;;;;;20.20;30.50;;;;;;8335599;28;19921;-43
2023/04/04 07:02:01;;;;;;;;;;;20.10;30.60;;;;;;8335338;28;19987;-43
2023/04/04 07:06:03;;;;;;;;;;;20.10;30.60;;;;;;8323769;28;19925;-43
2023/04/04 07:10:03;;;;;;;;;;;20.00;30.40;;;;;;8304954;28;20013;-44
2023/04/04 07:14:04;;;;;;;;;;;20.00;30.40;;;;;;8335012;28;20390;-43
2023/04/04 07:18:06;;;;;;;;;;;20.00;30.40;;;;;;8334238;28;19923;-43
2023/04/04 07:22:06;;;;;;;;;;;19.90;30.50;;;;;;8334497;28;19917;-43
2023/04/04 07:26:07;;;;;;;;;;;19.80;30.50;;;;;;8334259;28;19917;-43
2023/04/04 07:30:08;;;;;;;;;;;19.80;30.70;;;;;;8333634;28;19975;-43
2023/04/04 07:34:08;;;;;;;;;;;19.80;30.50;;;;;;8334247;28;20357;-43
2023/04/04 07:38:09;;;;;;;;;;;19.80;30.60;;;;;;8334040;28;19917;-43
2023/04/04 07:42:09;;;;;;;;;;;19.80;30.60;;;;;;8333452;28;19917;-44
2023/04/04 07:46:10;;;;;;;;;;;19.70;30.60;;;;;;8333799;28;20283;-45
2023/04/04 07:50:11;;;;;;;;;;;19.80;30.60;;;;;;8333539;28;19925;-44
2023/04/04 07:54:12;;;;;;;;;;;19.70;30.70;;;;;;8333938;28;19921;-44
2023/04/04 07:58:12;;;;;;;;;;;19.70;30.70;;;;;;8333375;28;20378;-43
2023/04/04 08:02:13;;;;;;;;;;;19.70;30.80;;;;;;8333577;28;19921;-43
2023/04/04 08:06:13;;;;;;;;;;;19.60;30.80;;;;;;8332616;28;19917;-44
2023/04/04 08:10:16;;;;;;;;;;;19.60;30.90;;;;;;8333070;28;19925;-44
2023/04/04 08:14:16;;;;;;;;;;;19.60;30.90;;;;;;8332727;28;20444;-42
2023/04/04 08:18:17;;;;;;;;;;;19.60;30.80;;;;;;8332777;28;19917;-44
2023/04/04 08:22:17;;;;;;;;;;;19.60;30.80;;;;;;8332896;28;20019;-44
2023/04/04 08:26:18;;;;;;;;;;;19.60;30.90;;;;;;8332172;28;19919;-42
2023/04/04 08:30:18;;;;;;;;;;;19.50;30.90;;;;;;8332657;28;19921;-44
2023/04/04 08:34:19;;;;;;;;;;;19.60;30.90;;;;;;8332650;28;20382;-43
2023/04/04 08:38:20;;;;;;;;;;;19.50;30.90;;;;;;8331899;28;19970;-43
2023/04/04 08:42:22;;;;;;;;;;;19.50;30.90;;;;;;8332095;28;20206;-43
2023/04/04 08:46:23;;;;;;;;;;;19.50;30.80;;;;;;8331734;28;19917;-43
2023/04/04 08:50:24;;;;;;;;;;;19.50;30.90;;;;;;8331314;28;19925;-43
2023/04/04 08:54:25;;;;;;;;;;;19.50;31.00;;;;;;8331847;28;19921;-44
2023/04/04 08:58:26;;;;;;;;;;;19.50;31.00;;;;;;8331492;28;19917;-43
2023/04/04 09:02:41;;;;;;;;;;;19.50;30.90;;;;;;8330979;28;20251;-44
2023/04/04 09:06:42;;;;;;;;;;;19.50;30.90;;;;;;8331539;28;19917;-44
2023/04/04 09:10:43;;;;;;;;;;;19.50;30.90;;;;;;8330294;28;19926;-44
2023/04/04 09:14:45;;;;;;;;;;;19.50;30.80;;;;;;8330760;28;19913;-43
2023/04/04 09:18:46;;;;;;;;;;;19.50;30.80;;;;;;8331110;28;19963;-44
2023/04/04 09:22:47;;;;;;;;;;;19.50;30.90;;;;;;8331030;28;20279;-45
2023/04/04 09:26:48;;;;;;;;;;;19.50;30.90;;;;;;8330169;28;19996;-45
2023/04/04 09:30:49;;;;;;;;;;;19.50;30.90;;;;;;8330617;28;19921;-45
2023/04/04 09:34:50;;;;;;;;;;;19.50;30.90;;;;;;8330655;28;19913;-46
2023/04/04 09:38:52;;;;;;;;;;;19.50;30.90;;;;;;8329949;28;19925;-44
2023/04/04 09:42:53;;;;;;;;;;;19.50;30.90;;;;;;8330254;28;19917;-43
2023/04/04 09:47:04;;;;;;;;;;;19.50;30.90;;;;;;8330148;28;19917;-43
2023/04/04 09:51:05;;;;;;;;;;;19.50;30.90;;;;;;8329698;28;20394;-43
2023/04/04 09:55:06;;;;;;;;;;;19.60;30.90;;;;;;8330157;28;20349;-44
2023/04/04 09:59:07;;;;;;;;;;;19.60;30.90;;;;;;8330000;28;19924;-44
2023/04/04 10:03:09;;;;;;;;;;;19.60;30.90;;;;;;8329519;28;20306;-44
2023/04/04 10:07:12;;;;;;;;;;;19.50;30.90;;;;;;8329081;28;19913;-44
2023/04/04 10:11:12;;;;;;;;;;;19.60;30.90;;;;;;8329887;28;19953;-44
2023/04/04 10:15:14;;;;;;;;;;;19.60;30.90;;;;;;8329562;28;19972;-45
2023/04/04 10:19:17;;;;;;;;;;;19.60;30.80;;;;;;8330357;28;20410;-43
2023/04/04 10:23:18;;;;;;;;;;;19.60;30.80;;;;;;8336056;28;20333;-44
2023/04/04 10:27:19;;;;;;;;;;;19.50;30.80;;;;;;8336046;28;19921;-44
2023/04/04 10:31:23;;;;;;;;;;;19.60;30.90;;;;;;8336370;28;19920;-44
2023/04/04 10:35:24;;;;;;;;;;;19.60;30.80;;;;;;8335854;28;19924;-46
2023/04/04 10:39:26;;;;;;;;;;;19.60;30.80;;;;;;8335859;28;20334;-44
2023/04/04 10:43:28;;;;;;;;;;;19.60;30.80;;;;;;8335936;28;19940;-44
2023/04/04 10:47:29;;;;;;;;;;;19.60;30.80;;;;;;8335178;28;20391;-45
2023/04/04 10:51:30;;;;;;;;;;;19.60;30.80;;;;;;8335472;28;19913;-45
2023/04/04 10:55:31;;;;;;;;;;;19.60;30.80;;;;;;8335727;28;19921;-44
2023/04/04 10:59:31;;;;;;;;;;;19.70;30.80;;;;;;8334827;28;20270;-45
2023/04/04 11:03:52;;;;;;;;;;;19.60;30.70;;;;;;8335335;28;19921;-44
2023/04/04 11:08:00;;;;;;;;;;;19.70;30.80;;;;;;8334626;28;20016;-44
2023/04/04 11:12:07;;;;;;;;;;;19.70;30.80;;;;;;8334214;28;19917;-44
2023/04/04 11:16:14;;;;;;;;;;;19.70;30.90;;;;;;8335031;28;19996;-44
2023/04/04 11:20:15;;;;;;;;;;;19.70;30.80;;;;;;8334524;28;20342;-44
2023/04/04 11:24:16;;;;;;;;;;;19.70;30.80;;;;;;8334124;28;20318;-44
2023/04/04 11:28:35;;;;;;;;;;;19.70;30.80;;;;;;8334414;28;19956;-43
2023/04/04 11:32:44;;;;;;;;;;;19.70;30.80;;;;;;8333348;28;19917;-43
2023/04/04 11:36:49;;;;;;;;;;;19.70;30.70;;;;;;8334078;28;19967;-45
2023/04/04 11:40:53;;;;;;;;;;;19.80;30.80;;;;;;8334079;28;19924;-44
2023/04/04 11:44:54;;;;;;;;;;;19.70;30.70;;;;;;8333315;28;19924;-43
2023/04/04 11:48:55;;;;;;;;;;;19.70;30.60;;;;;;8333860;28;19933;-44
2023/04/04 11:52:56;;;;;;;;;;;19.80;30.60;;;;;;8333688;28;19936;-44
2023/04/04 11:56:57;;;;;;;;;;;19.70;30.60;;;;;;8333022;28;20008;-43
2023/04/04 12:00:57;;;;;;;;;;;19.70;30.60;;;;;;8333800;28;19917;-43
2023/04/04 12:04:58;;;;;;;;;;;19.80;30.60;;;;;;8333301;28;19921;-42
2023/04/04 12:09:00;;;;;;;;;;;19.80;30.60;;;;;;8332541;28;19931;-44
2023/04/04 12:13:01;;;;;;;;;;;19.80;30.60;;;;;;8333270;28;19940;-44
2023/04/04 12:17:02;;;;;;;;;;;19.80;30.60;;;;;;8332808;28;19928;-43
2023/04/04 12:21:05;;;;;;;;;;;19.80;30.60;;;;;;8332400;28;20281;-43
2023/04/04 12:25:06;;;;;;;;;;;19.80;30.50;;;;;;8332462;28;19943;-44
2023/04/04 12:29:10;;;;;;;;;;;19.80;30.40;;;;;;8332339;28;19969;-44
2023/04/04 12:33:11;;;;;;;;;;;19.80;30.50;;;;;;8331754;28;19918;-44
2023/04/04 12:37:12;;;;;;;;;;;19.80;30.30;;;;;;8332425;28;19978;-43
2023/04/04 12:41:16;;;;;;;;;;;19.80;31.10;;;;;;8332247;28;20000;-44
2023/04/04 12:45:20;;;;;;;;;;;19.80;30.50;;;;;;8330819;28;19924;-43
2023/04/04 12:49:21;;;;;;;;;;;19.80;30.30;;;;;;8331765;28;20314;-44
2023/04/04 12:53:22;;;;;;;;;;;19.80;30.40;;;;;;8331302;28;20557;-44
2023/04/04 12:57:23;;;;;;;;;;;19.90;30.50;;;;;;8331594;28;20286;-45
2023/04/04 13:01:24;;;;;;;;;;;19.90;30.40;;;;;;8331726;28;19917;-42
2023/04/04 13:05:34;;;;;;;;;;;19.90;30.50;;;;;;8410524;27;19921;-44
2023/04/04 13:09:35;;;;;;;;;;;19.90;30.50;;;;;;8391943;28;20507;-45
2023/04/04 13:13:37;;;;;;;;;;;19.90;30.40;;;;;;8390671;28;19917;-44
2023/04/04 13:17:42;;;;;;;;;;;19.90;30.50;;;;;;8391202;28;19924;-45
2023/04/04 13:21:43;;;;;;;;;;;19.90;30.50;;;;;;8391763;28;20278;-44
2023/04/04 13:25:43;;;;;;;;;;;19.80;30.50;;;;;;8391312;28;19924;-45
2023/04/04 13:29:43;;;;;;;;;;;19.80;30.50;;;;;;8390680;28;19928;-45
2023/04/04 13:33:44;;;;;;;;;;;19.90;30.40;;;;;;8391380;28;19921;-45
2023/04/04 13:37:44;;;;;;;;;;;19.80;30.40;;;;;;8391211;28;19925;-44
2023/04/04 13:41:45;;;;;;;;;;;19.80;30.40;;;;;;8390551;28;19916;-45
2023/04/04 13:45:45;;;;;;;;;;;19.80;30.40;;;;;;8390519;28;19962;-45
2023/04/04 13:49:46;;;;;;;;;;;19.80;30.40;;;;;;8390534;28;20387;-44
2023/04/04 13:53:47;;;;;;;;;;;19.80;30.40;;;;;;8389927;28;20393;-44
2023/04/04 13:57:48;;;;;;;;;;;19.80;30.40;;;;;;8390514;28;20458;-44
2023/04/04 14:01:48;;;;;;;;;;;19.80;30.40;;;;;;8388899;28;19933;-46
2023/04/04 14:05:49;;;;;;;;;;;19.80;30.40;;;;;;8389682;28;19917;-44
2023/04/04 14:09:49;;;;;;;;;;;19.80;30.50;;;;;;8390014;28;20366;-45
2023/04/04 14:13:53;;;;;;;;;;;19.80;30.50;;;;;;8384673;28;19992;-44
2023/04/04 14:17:54;;;;;;;;;;;19.80;30.60;;;;;;8367305;28;19952;-44
2023/04/04 14:21:54;;;;;;;;;;;19.80;30.40;;;;;;8367906;28;20711;-44
2023/04/04 14:25:58;;;;;;;;;;;19.80;30.40;;;;;;8367784;28;20309;-45
2023/04/04 14:29:58;;;;;;;;;;;19.80;30.30;;;;;;8367417;28;19928;-44
2023/04/04 14:33:59;;;;;;;;;;;19.80;30.40;;;;;;8367248;28;19960;-45
2023/04/04 14:38:00;;;;;;;;;;;19.80;30.30;;;;;;8367284;28;19912;-44
2023/04/04 14:42:00;;;;;;;;;;;19.80;30.20;;;;;;8366384;28;19960;-44
2023/04/04 14:46:01;;;;;;;;;;;19.80;30.20;;;;;;8367054;28;19924;-44
2023/04/04 14:50:01;;;;;;;;;;;19.80;30.40;;;;;;8366780;28;19916;-45
2023/04/04 14:54:02;;;;;;;;;;;19.80;30.50;;;;;;8366137;28;19962;-44
2023/04/04 14:58:02;;;;;;;;;;;19.80;30.50;;;;;;8366245;28;20366;-44
2023/04/04 15:02:02;;;;;;;;;;;19.80;30.60;;;;;;8366231;28;19925;-44
2023/04/04 15:06:04;;;;;;;;;;;19.80;30.50;;;;;;8365761;28;20362;-45
2023/04/04 15:10:05;;;;;;;;;;;19.80;30.70;;;;;;8366069;28;20340;-45
2023/04/04 15:14:06;;;;;;;;;;;19.90;30.70;;;;;;8365844;28;19924;-44
2023/04/04 15:18:06;;;;;;;;;;;20.00;30.60;;;;;;8365534;28;20378;-44
2023/04/04 15:22:06;;;;;;;;;;;20.10;30.60;;;;;;8365705;28;20388;-44
2023/04/04 15:26:07;;;;;;;;;;;20.20;30.60;;;;;;8364418;28;19924;-45
2023/04/04 15:30:08;;;;;;;;;;;20.30;30.50;;;;;;8364961;28;20003;-45
2023/04/04 15:34:08;;;;;;;;;;;20.40;30.40;;;;;;8365135;28;19975;-46
2023/04/04 15:38:09;;;;;;;;;;;20.40;30.30;;;;;;8364829;28;19921;-43
2023/04/04 15:42:10;;;;;;;;;;;20.50;30.20;;;;;;8364907;28;19921;-46
2023/04/04 15:46:10;;;;;;;;;;;20.60;30.20;;;;;;8364645;28;20366;-48
2023/04/04 15:50:10;;;;;;;;;;;20.60;30.20;;;;;;8365148;28;20327;-45
2023/04/04 15:54:11;;;;;;;;;;;20.70;30.20;;;;;;8364158;28;19928;-45
2023/04/04 15:58:11;;;;;;;;;;;20.70;30.10;;;;;;8364872;28;20292;-45
2023/04/04 16:02:13;;;;;;;;;;;20.70;30.10;;;;;;8363583;28;19925;-45
2023/04/04 16:06:13;;;;;;;;;;;20.70;30.00;;;;;;8363881;28;19917;-45
2023/04/04 16:10:14;;;;;;;;;;;20.70;30.10;;;;;;8364275;28;20400;-44
2023/04/04 16:14:14;;;;;;;;;;;20.70;30.10;;;;;;8363965;28;19917;-44
2023/04/04 16:18:15;;;;;;;;;;;20.70;30.60;;;;;;8363666;28;20290;-46
2023/04/04 16:22:15;;;;;;;;;;;20.60;30.00;;;;;;8363647;28;20301;-47
2023/04/04 16:26:15;;;;;;;;;;;20.60;30.10;;;;;;8363803;28;19924;-44
2023/04/04 16:30:16;;;;;;;;;;;20.60;30.00;;;;;;8363106;28;20392;-46
2023/04/04 16:34:16;;;;;;;;;;;20.50;30.00;;;;;;8363621;28;20019;-47
2023/04/04 16:38:17;;;;;;;;;;;20.50;30.10;;;;;;8363163;28;20389;-46
2023/04/04 16:42:18;;;;;;;;;;;20.50;30.10;;;;;;8363156;28;19924;-44
2023/04/04 16:46:19;;;;;;;;;;;20.50;30.10;;;;;;8363437;28;20253;-45
2023/04/04 16:50:19;;;;;;;;;;;20.50;30.10;;;;;;8362840;28;20266;-44
2023/04/04 16:54:20;;;;;;;;;;;20.50;30.20;;;;;;8363060;28;19927;-45
2023/04/04 16:58:20;;;;;;;;;;;20.40;30.10;;;;;;8363414;28;20277;-45
2023/04/04 17:02:21;;;;;;;;;;;20.50;30.30;;;;;;8362428;28;19933;-45
2023/04/04 17:06:21;;;;;;;;;;;20.50;30.20;;;;;;8362592;28;19924;-45
2023/04/04 17:10:21;;;;;;;;;;;20.50;30.30;;;;;;8362676;28;19923;-44
2023/04/04 17:14:23;;;;;;;;;;;20.50;30.10;;;;;;8361411;28;19917;-44
2023/04/04 17:18:24;;;;;;;;;;;20.60;30.10;;;;;;8363116;28;19920;-45
2023/04/04 17:22:24;;;;;;;;;;;20.60;30.00;;;;;;8362697;28;20362;-44
2023/04/04 17:26:26;;;;;;;;;;;20.70;30.00;;;;;;8362130;28;20366;-48
2023/04/04 17:30:26;;;;;;;;;;;20.70;30.00;;;;;;8362310;28;20004;-44
2023/04/04 17:34:27;;;;;;;;;;;20.80;30.10;;;;;;8362232;28;19924;-45
2023/04/04 17:38:29;;;;;;;;;;;20.70;30.00;;;;;;8361950;28;19999;-46
2023/04/04 17:42:30;;;;;;;;;;;20.70;30.00;;;;;;8361970;28;19961;-44
2023/04/04 17:46:30;;;;;;;;;;;20.70;30.00;;;;;;8362042;28;20281;-46
2023/04/04 17:50:31;;;;;;;;;;;20.70;30.00;;;;;;8364832;28;19971;-46
2023/04/04 17:54:31;;;;;;;;;;;20.60;30.00;;;;;;8367835;28;19917;-45
2023/04/04 17:58:32;;;;;;;;;;;20.60;29.90;;;;;;8368432;28;19913;-45
2023/04/04 18:02:32;;;;;;;;;;;20.60;29.90;;;;;;8367605;28;20094;-46
2023/04/04 18:06:33;;;;;;;;;;;20.60;30.00;;;;;;8368021;28;19917;-45
2023/04/04 18:10:33;;;;;;;;;;;20.60;30.00;;;;;;8368199;28;20058;-46
2023/04/04 18:14:34;;;;;;;;;;;20.60;30.00;;;;;;8367501;28;19916;-46
2023/04/04 18:18:34;;;;;;;;;;;20.50;30.00;;;;;;8367881;28;19913;-45
2023/04/04 18:22:35;;;;;;;;;;;20.50;30.00;;;;;;8367536;28;19925;-43
2023/04/04 18:26:35;;;;;;;;;;;20.50;30.00;;;;;;8367071;28;19917;-43
2023/04/04 18:30:36;;;;;;;;;;;20.50;30.00;;;;;;8367508;28;19916;-44
2023/04/04 18:34:37;;;;;;;;;;;20.40;30.00;;;;;;8367064;28;19913;-42
2023/04/04 18:38:37;;;;;;;;;;;20.40;30.10;;;;;;8366788;28;19913;-44
2023/04/04 18:42:38;;;;;;;;;;;20.50;30.20;;;;;;8366879;28;19931;-44
2023/04/04 18:46:39;;;;;;;;;;;20.50;30.30;;;;;;8366849;28;19920;-44
2023/04/04 18:50:39;;;;;;;;;;;20.60;30.40;;;;;;8366288;28;19917;-44
2023/04/04 18:54:40;;;;;;;;;;;20.60;30.10;;;;;;8367116;28;19913;-44
2023/04/04 18:58:41;;;;;;;;;;;20.60;30.10;;;;;;8366871;28;19913;-44
2023/04/04 19:02:41;;;;;;;;;;;20.70;30.00;;;;;;8365811;28;19925;-43
2023/04/04 19:06:42;;;;;;;;;;;20.70;30.00;;;;;;8366778;28;19916;-43
2023/04/04 19:10:48;;;;;;;;;;;20.70;30.00;;;;;;8360775;28;19917;-45
2023/04/04 19:14:48;;;;;;;;;;;20.80;30.00;;;;;;8334715;28;20373;-44
2023/04/04 19:18:49;;;;;;;;;;;20.70;29.90;;;;;;8366370;28;19924;-44
2023/04/04 19:22:50;;;;;;;;;;;20.70;29.90;;;;;;8365811;28;19925;-43
2023/04/04 19:26:51;;;;;;;;;;;20.70;30.00;;;;;;8365370;28;19924;-44
2023/04/04 19:30:53;;;;;;;;;;;20.70;29.90;;;;;;8365840;28;20328;-44
2023/04/04 19:34:55;;;;;;;;;;;20.60;29.80;;;;;;8365687;28;19995;-44
2023/04/04 19:38:56;;;;;;;;;;;20.60;29.80;;;;;;8365153;28;19925;-42
2023/04/04 19:42:56;;;;;;;;;;;20.60;29.80;;;;;;8365512;28;19924;-44
2023/04/04 19:46:58;;;;;;;;;;;20.50;30.30;;;;;;8365100;28;19913;-44
2023/04/04 19:50:59;;;;;;;;;;;20.50;29.90;;;;;;8364527;28;20011;-43
2023/04/04 19:55:00;;;;;;;;;;;20.50;29.90;;;;;;8364773;28;19916;-44
2023/04/04 19:59:03;;;;;;;;;;;20.50;30.00;;;;;;8365090;28;20332;-44
2023/04/04 20:03:06;;;;;;;;;;;20.50;30.00;;;;;;8364220;28;19971;-44
2023/04/04 20:07:09;;;;;;;;;;;20.40;30.00;;;;;;8364818;28;20400;-44
2023/04/04 20:11:10;;;;;;;;;;;20.40;30.00;;;;;;8363987;28;20378;-43
2023/04/04 20:15:13;;;;;;;;;;;20.40;30.00;;;;;;8363465;28;19969;-43
2023/04/04 20:19:14;;;;;;;;;;;20.40;30.00;;;;;;8364254;28;19924;-44
2023/04/04 20:23:15;;;;;;;;;;;20.50;30.10;;;;;;8363963;28;19993;-45
2023/04/04 20:27:33;;;;;;;;;;;20.50;30.20;;;;;;8363467;28;19917;-44
2023/04/04 20:31:42;;;;;;;;;;;20.50;30.00;;;;;;8363669;28;19913;-43
2023/04/04 20:35:42;;;;;;;;;;;20.60;30.00;;;;;;8364768;28;20398;-43
2023/04/04 20:39:45;;;;;;;;;;;20.70;30.00;;;;;;8363684;28;19924;-43
2023/04/04 20:43:50;;;;;;;;;;;20.60;29.90;;;;;;8363488;28;19964;-44
2023/04/04 20:47:59;;;;;;;;;;;20.60;29.90;;;;;;8363062;28;20356;-44
2023/04/04 20:51:59;;;;;;;;;;;20.70;30.00;;;;;;8363609;28;19921;-43
2023/04/04 20:56:01;;;;;;;;;;;20.60;29.90;;;;;;8363164;28;19916;-43
2023/04/04 21:00:04;;;;;;;;;;;20.60;29.80;;;;;;8363072;28;19924;-43
2023/04/04 21:04:05;;;;;;;;;;;20.60;29.80;;;;;;8362890;28;19925;-41
2023/04/04 21:08:14;;;;;;;;;;;20.50;29.70;;;;;;8363009;28;19967;-44
2023/04/04 21:12:15;;;;;;;;;;;20.60;29.80;;;;;;8362472;28;19916;-43
2023/04/04 21:16:17;;;;;;;;;;;20.50;29.80;;;;;;8363142;28;19917;-44
2023/04/04 21:20:38;;;;;;;;;;;20.50;29.90;;;;;;8362721;28;19913;-44
2023/04/04 21:24:38;;;;;;;;;;;20.40;29.80;;;;;;8364907;28;19954;-43
2023/04/04 21:28:41;;;;;;;;;;;20.40;30.00;;;;;;8369248;28;20408;-44
2023/04/04 21:32:41;;;;;;;;;;;20.30;30.00;;;;;;8368760;28;19917;-44
2023/04/04 21:36:42;;;;;;;;;;;20.30;30.10;;;;;;8369386;28;19940;-43
2023/04/04 21:40:43;;;;;;;;;;;20.20;30.00;;;;;;8369004;28;20015;-43
2023/04/04 21:44:43;;;;;;;;;;;20.20;30.10;;;;;;8368556;28;19967;-43
2023/04/04 21:48:43;;;;;;;;;;;20.20;30.10;;;;;;8369024;28;20046;-43
2023/04/04 21:52:44;;;;;;;;;;;20.20;30.20;;;;;;8368680;28;19924;-43
2023/04/04 21:56:44;;;;;;;;;;;20.10;30.10;;;;;;8368089;28;20360;-43
2023/04/04 22:00:45;;;;;;;;;;;20.10;30.20;;;;;;8368249;28;19920;-43
2023/04/04 22:04:45;;;;;;;;;;;20.10;30.20;;;;;;8409129;28;19932;-43
2023/04/04 22:08:46;;;;;;;;;;;20.00;30.20;;;;;;8404080;27;19924;-43
2023/04/04 22:12:48;;;;;;;;;;;20.00;30.20;;;;;;8351952;28;20382;-43
2023/04/04 22:16:49;;;;;;;;;;;20.00;30.30;;;;;;8367743;28;19920;-44
2023/04/04 22:20:53;;;;;;;;;;;19.90;30.30;;;;;;8367322;28;19916;-43
2023/04/04 22:25:03;;;;;;;;;;;19.90;30.30;;;;;;8368015;28;19972;-44
2023/04/04 22:29:04;;;;;;;;;;;19.90;30.30;;;;;;8367659;28;19917;-43
2023/04/04 22:33:04;;;;;;;;;;;19.90;30.30;;;;;;8367039;28;19916;-43
2023/04/04 22:37:05;;;;;;;;;;;19.80;30.30;;;;;;8366766;28;19958;-43
2023/04/04 22:41:05;;;;;;;;;;;19.80;30.30;;;;;;8367332;28;19939;-43
2023/04/04 22:45:06;;;;;;;;;;;19.80;30.20;;;;;;8366723;28;19924;-43
2023/04/04 22:49:07;;;;;;;;;;;19.80;30.30;;;;;;8367076;28;19916;-43
2023/04/04 22:53:11;;;;;;;;;;;19.70;30.30;;;;;;8366943;28;19919;-43
2023/04/04 22:57:12;;;;;;;;;;;19.80;30.30;;;;;;8366174;28;20431;-43
2023/04/04 23:01:13;;;;;;;;;;;19.70;30.30;;;;;;8366753;28;19987;-43
2023/04/04 23:05:14;;;;;;;;;;;19.70;30.40;;;;;;8366551;28;20336;-43
2023/04/04 23:09:15;;;;;;;;;;;19.70;30.40;;;;;;8365738;28;19939;-43
2023/04/04 23:13:15;;;;;;;;;;;19.70;30.30;;;;;;8366112;28;19978;-43
2023/04/04 23:17:16;;;;;;;;;;;19.60;30.30;;;;;;8365930;28;20354;-43
2023/04/04 23:21:16;;;;;;;;;;;19.60;30.30;;;;;;8365373;28;20346;-43